Time;durP1;ratioP1;P1;durP2;ratioP2;P2;SDS_P1;SDS_P2;PMS_P1;PMS_P2;Temp;Humidity;BMP_temperature;BMP_pressure;BME280_temperature;BME280_humidity;BME280_pressure;Samples;Min_cycle;Max_cycle;Signal;HPM_P1;HPM_P2
2021/09/13 00:00:58;;;;;;;11.13;2.80;;;;;;;13.03;100.00;101555.88;4941473;28;20049;-74
2021/09/13 00:03:24;;;;;;;11.60;2.58;;;;;;;13.00;100.00;101561.44;4980171;28;20045;-76
2021/09/13 00:05:50;;;;;;;8.45;2.40;;;;;;;13.00;100.00;101546.47;4975738;28;20041;-74
2021/09/13 00:08:16;;;;;;;16.98;2.45;;;;;;;13.00;100.00;101554.38;4955087;28;20045;-77
2021/09/13 00:10:43;;;;;;;12.35;2.35;;;;;;;12.97;100.00;101545.91;4994465;28;20034;-75
2021/09/13 00:13:09;;;;;;;11.55;2.63;;;;;;;13.01;100.00;101550.75;4973051;28;20046;-75
2021/09/13 00:15:36;;;;;;;5.88;2.65;;;;;;;13.12;100.00;101552.38;4991919;28;20034;-76
2021/09/13 00:18:02;;;;;;;13.85;2.65;;;;;;;13.12;100.00;101556.81;4960692;28;20045;-76
2021/09/13 00:20:28;;;;;;;9.68;2.58;;;;;;;13.19;100.00;101555.28;4956187;28;20039;-75
2021/09/13 00:22:55;;;;;;;10.02;2.70;;;;;;;13.24;100.00;101550.41;4976674;28;20042;-75
2021/09/13 00:25:21;;;;;;;11.23;3.53;;;;;;;13.29;100.00;101547.34;4990189;28;20042;-75
2021/09/13 00:27:48;;;;;;;10.00;3.08;;;;;;;13.36;100.00;101553.72;4943619;28;20038;-77
2021/09/13 00:30:15;;;;;;;14.98;3.00;;;;;;;13.40;100.00;101555.09;4941718;28;20034;-75
2021/09/13 00:32:41;;;;;;;12.77;3.42;;;;;;;13.37;100.00;101550.97;4962458;28;20030;-75
2021/09/13 00:35:07;;;;;;;9.25;3.20;;;;;;;13.39;100.00;101551.63;4992669;28;20401;-74
2021/09/13 00:37:34;;;;;;;9.02;2.85;;;;;;;13.38;100.00;101557.06;4975213;28;20045;-78
2021/09/13 00:40:06;;;;;;;10.63;4.40;;;;;;;13.46;100.00;101551.88;4981107;28;20072;-75
2021/09/13 00:42:33;;;;;;;5.53;2.90;;;;;;;13.51;100.00;101549.63;4980052;28;20333;-74
2021/09/13 00:45:01;;;;;;;12.15;3.35;;;;;;;13.49;100.00;101548.13;4971981;28;20104;-77
2021/09/13 00:47:26;;;;;;;15.07;3.05;;;;;;;13.46;100.00;101548.41;4989329;28;20034;-74
2021/09/13 00:49:52;;;;;;;5.90;3.22;;;;;;;13.40;100.00;101550.66;4992342;28;20029;-73
2021/09/13 00:52:18;;;;;;;9.65;3.00;;;;;;;13.39;100.00;101546.38;4957542;28;20038;-77
2021/09/13 00:54:45;;;;;;;14.65;3.50;;;;;;;13.36;100.00;101551.09;4993392;28;20757;-76
2021/09/13 00:57:12;;;;;;;10.48;3.08;;;;;;;13.29;100.00;101549.97;4965177;28;20088;-75
2021/09/13 00:59:38;;;;;;;14.70;3.22;;;;;;;13.25;100.00;101546.81;4981013;28;20034;-74
2021/09/13 01:02:04;;;;;;;13.60;2.90;;;;;;;13.21;100.00;101546.25;4993109;28;20109;-76
2021/09/13 01:04:30;;;;;;;11.88;3.25;;;;;;;13.18;100.00;101545.72;4969506;28;20042;-75
2021/09/13 01:06:55;;;;;;;9.80;2.80;;;;;;;13.15;100.00;101546.03;4951022;28;20560;-76
2021/09/13 01:09:22;;;;;;;14.02;3.38;;;;;;;13.08;100.00;101537.84;4969919;28;20529;-73
2021/09/13 01:11:49;;;;;;;23.83;3.65;;;;;;;13.12;100.00;101551.56;4977646;28;20034;-77
2021/09/13 01:14:15;;;;;;;10.35;3.22;;;;;;;12.95;100.00;101540.78;4988009;28;20069;-78
2021/09/13 01:16:42;;;;;;;9.40;3.50;;;;;;;12.98;100.00;101548.41;4974282;28;20476;-75
2021/09/13 01:19:08;;;;;;;16.05;3.70;;;;;;;13.04;100.00;101552.28;4970694;28;20054;-78
2021/09/13 01:21:38;;;;;;;12.50;3.80;;;;;;;13.10;100.00;101540.34;4988338;28;20442;-77
2021/09/13 01:24:05;;;;;;;10.43;3.63;;;;;;;13.16;100.00;101551.13;4963782;28;20041;-76
2021/09/13 01:26:32;;;;;;;10.77;3.60;;;;;;;13.17;100.00;101549.34;4992504;28;20765;-77
2021/09/13 01:28:58;;;;;;;9.52;3.65;;;;;;;13.18;100.00;101553.63;4981535;28;20084;-76
2021/09/13 01:31:30;;;;;;;19.38;4.80;;;;;;;13.19;100.00;101550.03;4979316;28;20376;-76
2021/09/13 01:33:56;;;;;;;11.30;4.13;;;;;;;13.32;100.00;101555.00;4993365;28;20039;-76
2021/09/13 01:36:27;;;;;;;14.13;4.13;;;;;;;13.34;100.00;101551.25;4950948;28;20044;-77
2021/09/13 01:38:53;;;;;;;9.77;4.10;;;;;;;13.41;100.00;101546.19;4955710;28;20030;-77
2021/09/13 01:41:18;;;;;;;17.17;4.80;;;;;;;13.39;100.00;101553.44;4955848;28;20442;-75
2021/09/13 01:43:46;;;;;;;13.10;5.25;;;;;;;13.47;100.00;101553.53;4963698;28;20122;-76
2021/09/13 01:46:12;;;;;;;8.07;4.45;;;;;;;13.53;100.00;101558.22;4993606;28;20050;-77
2021/09/13 01:48:45;;;;;;;12.77;4.53;;;;;;;13.55;100.00;101558.09;4976282;28;20030;-76
2021/09/13 01:51:12;;;;;;;9.98;4.63;;;;;;;13.56;100.00;101557.09;4963372;28;20093;-76
2021/09/13 01:53:37;;;;;;;15.25;4.65;;;;;;;13.56;100.00;101567.63;4977042;28;20030;-77
2021/09/13 01:56:04;;;;;;;16.30;5.15;;;;;;;13.56;100.00;101562.38;4980363;28;20483;-76
2021/09/13 01:58:30;;;;;;;17.25;4.85;;;;;;;13.55;100.00;101555.44;4973862;28;20034;-76
2021/09/13 02:00:56;;;;;;;13.20;5.22;;;;;;;13.75;100.00;101571.97;4957164;28;20112;-75
2021/09/13 02:03:23;;;;;;;13.82;4.80;;;;;;;13.73;100.00;101560.75;4965957;28;20034;-75
2021/09/13 02:05:51;;;;;;;14.48;5.97;;;;;;;13.77;100.00;101568.25;4951843;28;20487;-76
2021/09/13 02:08:19;;;;;;;11.98;6.20;;;;;;;13.73;100.00;101566.88;4953959;28;20040;-75
2021/09/13 02:10:44;;;;;;;12.38;5.78;;;;;;;13.80;100.00;101567.09;4951361;28;20042;-77
2021/09/13 02:13:12;;;;;;;13.55;6.07;;;;;;;13.74;100.00;101562.44;4975370;28;20062;-76
2021/09/13 02:15:38;;;;;;;13.57;5.60;;;;;;;13.72;100.00;101564.38;4958493;28;20066;-75
2021/09/13 02:18:06;;;;;;;13.60;6.07;;;;;;;13.76;100.00;101565.75;4984668;28;20084;-75
2021/09/13 02:20:36;;;;;;;12.75;6.82;;;;;;;13.77;100.00;101572.69;4967720;28;20037;-76
2021/09/13 02:23:02;;;;;;;15.60;7.63;;;;;;;13.79;100.00;101563.66;4983368;28;20027;-76
2021/09/13 02:25:27;;;;;;;15.45;8.02;;;;;;;13.81;100.00;101566.97;4970106;28;20508;-76
2021/09/13 02:27:53;;;;;;;10.32;6.93;;;;;;;13.76;100.00;101568.38;4987883;28;20057;-76
2021/09/13 02:30:19;;;;;;;15.73;7.28;;;;;;;13.79;100.00;101578.66;4985904;28;20044;-75
2021/09/13 02:32:46;;;;;;;13.35;7.88;;;;;;;13.80;100.00;101585.56;4953689;28;20034;-74
2021/09/13 02:35:15;;;;;;;19.80;7.97;;;;;;;13.82;100.00;101589.72;4986055;28;20045;-75
2021/09/13 02:37:40;;;;;;;17.75;8.55;;;;;;;13.81;100.00;101580.16;4947172;28;20027;-76
2021/09/13 02:40:08;;;;;;;15.27;9.00;;;;;;;13.76;100.00;101585.03;4986839;28;20070;-75
2021/09/13 02:42:35;;;;;;;15.07;8.60;;;;;;;13.74;100.00;101592.25;4947647;28;20120;-77
2021/09/13 02:45:01;;;;;;;14.48;8.18;;;;;;;13.73;100.00;101592.38;4951712;28;20038;-73
2021/09/13 02:47:27;;;;;;;19.73;8.85;;;;;;;13.74;100.00;101597.53;4970148;28;20038;-74
2021/09/13 02:49:53;;;;;;;11.85;8.10;;;;;;;13.71;100.00;101595.19;4987362;28;20116;-75
2021/09/13 02:52:23;;;;;;;16.48;7.60;;;;;;;13.71;100.00;101596.97;4980699;28;20034;-75
2021/09/13 02:54:49;;;;;;;14.30;8.02;;;;;;;13.77;100.00;101597.25;5004776;28;20040;-76
2021/09/13 02:57:14;;;;;;;15.68;7.70;;;;;;;13.77;100.00;101599.88;4955504;28;20029;-77
2021/09/13 02:59:41;;;;;;;14.30;7.82;;;;;;;13.69;100.00;101594.50;4978926;28;20041;-76
2021/09/13 03:02:06;;;;;;;14.25;7.72;;;;;;;13.70;100.00;101606.72;4987658;28;20018;-76
2021/09/13 03:04:33;;;;;;;11.43;6.93;;;;;;;13.67;100.00;101608.81;4972261;28;20045;-76
2021/09/13 03:06:58;;;;;;;18.67;8.48;;;;;;;13.62;100.00;101602.16;4961344;28;20102;-76
2021/09/13 03:09:24;;;;;;;13.65;7.93;;;;;;;13.65;100.00;101605.47;4967387;28;20479;-74
2021/09/13 03:11:49;;;;;;;16.63;9.48;;;;;;;13.69;100.00;101610.31;4995996;28;20036;-76
2021/09/13 03:14:15;;;;;;;18.27;10.07;;;;;;;13.69;100.00;101620.03;4942627;28;20538;-77
2021/09/13 03:16:41;;;;;;;16.27;9.88;;;;;;;13.69;100.00;101615.56;4957864;28;20823;-77
2021/09/13 03:19:06;;;;;;;16.73;10.43;;;;;;;13.66;100.00;101607.16;4966772;28;20026;-78
2021/09/13 03:21:32;;;;;;;19.15;10.75;;;;;;;13.68;100.00;101610.47;4985855;28;20034;-79
2021/09/13 03:23:59;;;;;;;15.40;8.93;;;;;;;13.67;100.00;101611.44;4961771;28;20035;-74
2021/09/13 03:26:25;;;;;;;18.25;10.57;;;;;;;13.74;100.00;101620.44;4975624;28;20062;-75
2021/09/13 03:28:51;;;;;;;16.58;9.55;;;;;;;13.73;100.00;101619.59;4964868;28;20080;-77
2021/09/13 03:31:16;;;;;;;14.48;10.00;;;;;;;13.74;100.00;101615.16;4971627;28;20042;-77
2021/09/13 03:33:44;;;;;;;14.30;9.52;;;;;;;13.73;100.00;101614.34;4957970;28;20125;-78
2021/09/13 03:36:11;;;;;;;12.40;9.38;;;;;;;13.68;100.00;101616.56;4992863;28;20130;-79
2021/09/13 03:38:36;;;;;;;17.60;10.70;;;;;;;13.65;100.00;101608.13;4952431;28;20125;-75
2021/09/13 03:41:02;;;;;;;19.08;10.63;;;;;;;13.68;100.00;101613.94;4953285;28;20790;-77
2021/09/13 03:43:28;;;;;;;17.20;11.05;;;;;;;13.66;100.00;101613.25;4957268;28;20094;-74
2021/09/13 03:45:55;;;;;;;16.25;10.07;;;;;;;13.64;100.00;101609.94;4936682;28;20065;-76
2021/09/13 03:48:22;;;;;;;19.83;11.07;;;;;;;13.62;100.00;101607.44;4979990;28;20034;-77
2021/09/13 03:50:48;;;;;;;15.52;10.13;;;;;;;13.71;100.00;101615.44;4985903;28;20092;-78
2021/09/13 03:53:14;;;;;;;17.48;9.88;;;;;;;13.60;100.00;101606.75;4966294;28;20042;-76
2021/09/13 03:55:39;;;;;;;21.73;10.20;;;;;;;13.67;100.00;101611.44;4956627;28;20077;-76
2021/09/13 03:58:07;;;;;;;17.63;9.93;;;;;;;13.68;100.00;101621.03;4944931;28;20555;-76
2021/09/13 04:00:34;;;;;;;13.63;9.57;;;;;;;13.62;100.00;101603.97;4977235;28;20034;-76
2021/09/13 04:03:04;;;;;;;21.27;10.75;;;;;;;13.69;100.00;101607.66;4945415;28;20069;-75
2021/09/13 04:05:30;;;;;;;16.38;9.98;;;;;;;13.68;100.00;101608.66;4954958;28;20041;-73
2021/09/13 04:11:17;;;;;;;23.58;10.13;;;;;;;13.68;100.00;101613.13;4979864;28;20391;-78
2021/09/13 04:14:14;;;;;;;21.70;10.88;;;;;;;13.70;100.00;101613.78;4976363;28;20104;-76
2021/09/13 04:16:47;;;;;;;21.33;12.30;;;;;;;13.68;100.00;101611.31;4972470;28;20034;-77
2021/09/13 04:19:33;;;;;;;20.08;12.35;;;;;;;13.65;100.00;101603.66;4958793;28;20041;-74
2021/09/13 04:22:34;;;;;;;18.30;11.93;;;;;;;13.67;100.00;101611.44;4962817;28;20068;-78
2021/09/13 04:25:15;;;;;;;17.58;11.20;;;;;;;13.61;100.00;101607.56;4960110;28;20046;-76
2021/09/13 04:27:53;;;;;;;18.08;11.68;;;;;;;13.55;100.00;101611.63;4957623;28;20946;-77
2021/09/13 04:30:34;;;;;;;15.88;10.88;;;;;;;13.54;100.00;101609.97;4951251;28;20069;-76
2021/09/13 04:33:21;;;;;;;18.88;11.07;;;;;;;13.50;100.00;101608.59;4950599;28;20026;-75
2021/09/13 04:36:05;;;;;;;16.08;10.80;;;;;;;13.43;100.00;101605.72;4978936;28;20117;-75
2021/09/13 04:38:44;;;;;;;20.67;10.57;;;;;;;13.44;100.00;101604.72;4955169;28;20035;-76
2021/09/13 04:41:23;;;;;;;13.80;10.73;;;;;;;13.42;100.00;101608.47;4989054;22;20022;-77
2021/09/13 04:44:09;;;;;;;17.85;10.18;;;;;;;13.40;100.00;101611.25;5003654;28;20064;-79
2021/09/13 04:46:54;;;;;;;18.95;10.88;;;;;;;13.46;100.00;101614.31;5018614;28;21880;-79
2021/09/13 04:49:39;;;;;;;19.60;10.98;;;;;;;13.46;100.00;101606.41;5039778;28;20068;-77
2021/09/13 04:52:19;;;;;;;18.65;10.52;;;;;;;13.53;100.00;101607.47;4987318;28;20117;-78
2021/09/13 04:54:52;;;;;;;18.35;12.15;;;;;;;13.59;100.00;101606.91;4995648;28;20278;-75
2021/09/13 04:57:18;;;;;;;26.63;11.30;;;;;;;13.70;100.00;101609.34;4998772;28;20030;-78
2021/09/13 04:59:44;;;;;;;17.13;10.90;;;;;;;13.75;100.00;101614.16;4996859;28;20040;-76
2021/09/13 05:02:10;;;;;;;21.02;11.13;;;;;;;13.76;100.00;101614.03;5007465;28;20476;-78
2021/09/13 05:04:37;;;;;;;19.40;10.93;;;;;;;13.78;100.00;101613.88;4982737;28;20037;-77
2021/09/13 05:07:04;;;;;;;23.83;11.98;;;;;;;13.80;100.00;101614.56;5002767;28;20124;-77
2021/09/13 05:09:30;;;;;;;16.55;11.43;;;;;;;13.78;100.00;101613.88;5007534;28;20033;-78
2021/09/13 05:11:55;;;;;;;14.65;10.40;;;;;;;13.79;100.00;101626.09;5015431;28;20553;-79
2021/09/13 05:14:23;;;;;;;22.92;12.18;;;;;;;13.84;100.00;101621.19;5015529;28;20114;-77
2021/09/13 05:16:51;;;;;;;23.10;12.05;;;;;;;13.84;100.00;101626.47;5019059;28;20068;-78
2021/09/13 05:19:18;;;;;;;18.63;11.02;;;;;;;13.86;100.00;101621.06;5019202;28;20041;-78
2021/09/13 05:21:43;;;;;;;20.23;11.23;;;;;;;13.91;100.00;101629.38;4994782;28;20034;-76
2021/09/13 05:24:13;;;;;;;18.73;11.32;;;;;;;13.96;100.00;101625.31;4995341;28;20042;-78
2021/09/13 05:26:41;;;;;;;24.85;11.68;;;;;;;13.99;100.00;101630.31;4996885;28;20029;-77
2021/09/13 05:29:08;;;;;;;18.02;10.65;;;;;;;13.99;100.00;101635.59;4992850;28;20091;-77
2021/09/13 05:31:33;;;;;;;20.67;11.40;;;;;;;14.03;100.00;101636.09;4992391;28;20456;-75
2021/09/13 05:33:59;;;;;;;22.65;10.57;;;;;;;14.06;100.00;101627.06;4990095;28;20072;-78
2021/09/13 05:36:25;;;;;;;14.48;10.18;;;;;;;14.07;100.00;101641.91;4996946;28;20494;-78
2021/09/13 05:38:51;;;;;;;20.92;11.93;;;;;;;14.08;100.00;101633.03;5034072;28;20049;-79
2021/09/13 05:41:42;;;;;;;19.15;10.18;;;;;;;14.11;100.00;101640.63;4994421;28;20037;-78
2021/09/13 05:44:08;;;;;;;18.25;10.82;;;;;;;14.16;100.00;101643.66;4985645;28;20418;-77
2021/09/13 05:46:34;;;;;;;19.63;10.13;;;;;;;14.18;100.00;101636.44;4974923;28;20069;-76
2021/09/13 05:49:00;;;;;;;20.50;10.20;;;;;;;14.24;100.00;101641.13;4977221;28;20033;-77
2021/09/13 05:51:26;;;;;;;21.30;11.07;;;;;;;14.26;100.00;101640.97;4987094;28;20034;-77
2021/09/13 05:53:53;;;;;;;17.35;10.38;;;;;;;14.32;100.00;101650.94;4990629;28;20160;-78
2021/09/13 05:56:18;;;;;;;20.60;10.25;;;;;;;14.34;100.00;101655.09;5021461;28;20125;-77
2021/09/13 05:58:44;;;;;;;19.73;11.35;;;;;;;14.36;100.00;101660.22;5024703;28;20033;-76
2021/09/13 06:01:11;;;;;;;18.45;10.07;;;;;;;14.38;100.00;101661.72;5005681;28;20038;-77
2021/09/13 06:03:37;;;;;;;17.67;10.75;;;;;;;14.39;100.00;101660.75;5018111;28;20029;-77
2021/09/13 06:06:15;;;;;;;22.70;11.25;;;;;;;14.36;100.00;101654.94;5014179;28;20033;-77
2021/09/13 06:08:41;;;;;;;20.92;11.25;;;;;;;14.37;100.00;101662.72;5006042;28;20556;-77
2021/09/13 06:11:07;;;;;;;20.45;10.90;;;;;;;14.41;100.00;101664.06;5026520;28;20037;-79
2021/09/13 06:13:33;;;;;;;16.15;10.27;;;;;;;14.44;100.00;101662.94;5015427;28;20037;-76
2021/09/13 06:15:59;;;;;;;14.07;9.68;;;;;;;14.47;100.00;101657.38;5013072;28;20034;-79
2021/09/13 06:18:26;;;;;;;16.58;9.20;;;;;;;14.50;100.00;101659.69;4994661;28;20513;-77
2021/09/13 06:20:51;;;;;;;17.25;10.43;;;;;;;14.51;100.00;101661.34;4991338;28;20031;-77
2021/09/13 06:23:19;;;;;;;14.52;10.13;;;;;;;14.56;100.00;101669.66;5002874;28;20034;-78
2021/09/13 06:25:44;;;;;;;16.05;9.48;;;;;;;14.58;100.00;101670.38;4993549;28;20100;-77
2021/09/13 06:28:11;;;;;;;19.75;10.57;;;;;;;14.65;100.00;101675.03;4999508;28;20057;-77
2021/09/13 06:30:37;;;;;;;16.27;10.27;;;;;;;14.70;100.00;101675.44;5000673;28;20045;-78
2021/09/13 06:33:04;;;;;;;15.77;9.68;;;;;;;14.76;100.00;101683.56;5007943;28;20043;-76
2021/09/13 06:35:34;;;;;;;19.08;9.68;;;;;;;14.86;100.00;101675.59;5005848;28;20039;-78
2021/09/13 06:38:07;;;;;;;16.92;9.27;;;;;;;14.94;100.00;101680.09;4997396;28;20057;-79
2021/09/13 06:40:35;;;;;;;15.43;8.85;;;;;;;14.98;100.00;101681.47;5008332;28;20041;-78
2021/09/13 06:43:01;;;;;;;12.73;8.23;;;;;;;15.04;100.00;101691.41;5010245;28;20030;-75
2021/09/13 06:45:27;;;;;;;21.08;8.68;;;;;;;15.08;100.00;101690.13;5004060;28;20471;-77
2021/09/13 06:47:53;;;;;;;14.25;7.57;;;;;;;15.07;100.00;101693.75;5034729;28;20038;-78
2021/09/13 06:50:25;;;;;;;16.42;7.75;;;;;;;15.05;100.00;101693.09;4994545;28;20029;-78
2021/09/13 06:52:53;;;;;;;15.27;7.03;;;;;;;15.05;100.00;101698.38;5002056;28;20513;-78
2021/09/13 06:55:19;;;;;;;17.88;7.40;;;;;;;15.07;100.00;101693.75;5006848;28;20041;-79
2021/09/13 06:57:45;;;;;;;13.77;7.47;;;;;;;15.10;100.00;101701.34;5005698;28;20505;-76
2021/09/13 07:00:13;;;;;;;17.30;7.75;;;;;;;15.17;100.00;101705.06;5008135;28;20038;-79
2021/09/13 07:02:41;;;;;;;17.83;8.45;;;;;;;15.20;100.00;101709.22;5017896;28;20028;-79
2021/09/13 07:05:09;;;;;;;18.13;6.90;;;;;;;15.23;100.00;101710.72;5017481;28;20056;-79
2021/09/13 07:07:35;;;;;;;14.93;6.80;;;;;;;15.24;100.00;101718.50;5031955;28;20377;-79
2021/09/13 07:10:01;;;;;;;13.57;6.72;;;;;;;15.24;100.00;101729.06;5015619;28;20053;-77
2021/09/13 07:12:27;;;;;;;10.45;6.63;;;;;;;15.18;100.00;101724.38;5019485;28;20056;-78
2021/09/13 07:14:54;;;;;;;13.63;6.03;;;;;;;15.25;100.00;101727.25;5010659;28;20045;-78
2021/09/13 07:17:20;;;;;;;11.13;5.35;;;;;;;15.22;100.00;101724.91;5013099;28;20729;-79
2021/09/13 07:19:48;;;;;;;12.00;4.95;;;;;;;15.24;100.00;101729.06;5021941;28;20493;-79
2021/09/13 07:22:13;;;;;;;11.68;4.07;;;;;;;15.18;100.00;101734.94;5018052;28;20437;-77
2021/09/13 07:24:43;;;;;;;14.88;4.45;;;;;;;15.20;100.00;101735.66;5026928;28;20084;-78
2021/09/13 07:27:09;;;;;;;9.10;4.55;;;;;;;15.15;100.00;101732.63;5024122;28;20056;-79
2021/09/13 07:29:36;;;;;;;15.15;4.28;;;;;;;15.20;100.00;101738.28;5007593;28;20525;-79
2021/09/13 07:32:02;;;;;;;11.70;3.78;;;;;;;15.22;100.00;101741.59;5009382;28;20029;-79
2021/09/13 07:34:28;;;;;;;11.00;3.80;;;;;;;15.27;100.00;101746.44;5013774;28;20025;-79
2021/09/13 07:36:55;;;;;;;10.77;2.38;;;;;;;15.26;100.00;101744.78;5025594;28;20091;-78
2021/09/13 07:39:22;;;;;;;8.18;2.28;;;;;;;15.16;100.00;101747.47;5029539;28;20145;-77
2021/09/13 07:41:48;;;;;;;7.35;2.38;;;;;;;15.18;100.00;101741.09;5019392;28;20044;-79
2021/09/13 07:44:13;;;;;;;11.68;2.65;;;;;;;15.14;100.00;101752.94;5024473;28;20086;-78
2021/09/13 07:46:39;;;;;;;8.65;2.53;;;;;;;15.14;100.00;101752.94;5025398;28;20129;-80
2021/09/13 07:49:05;;;;;;;15.82;2.60;;;;;;;15.19;100.00;101749.84;5009286;28;20041;-78
2021/09/13 07:51:31;;;;;;;11.23;2.83;;;;;;;15.22;100.00;101752.19;5017664;28;20045;-79
2021/09/13 07:53:56;;;;;;;9.82;1.90;;;;;;;15.33;100.00;101759.88;5019953;28;20097;-79
2021/09/13 07:56:22;;;;;;;18.92;2.75;;;;;;;15.31;100.00;101758.34;5003789;28;20475;-79
2021/09/13 07:58:48;;;;;;;8.88;2.80;;;;;;;15.36;100.00;101764.00;5042545;28;20036;-80
2021/09/13 08:01:13;;;;;;;8.45;1.90;;;;;;;15.41;100.00;101761.75;5008059;28;20087;-79
2021/09/13 08:03:39;;;;;;;10.95;2.30;;;;;;;15.46;100.00;101764.75;5030556;28;20037;-77
2021/09/13 08:06:08;;;;;;;7.50;2.13;;;;;;;15.44;100.00;101763.25;5042539;28;20033;-79
2021/09/13 08:08:34;;;;;;;6.63;2.10;;;;;;;15.44;100.00;101753.50;5022270;28;20029;-76
2021/09/13 08:11:00;;;;;;;6.68;2.13;;;;;;;15.45;100.00;101749.88;4999761;28;20038;-77
2021/09/13 08:13:27;;;;;;;5.63;1.60;;;;;;;15.41;100.00;101761.75;5013596;28;20056;-78
2021/09/13 08:15:54;;;;;;;5.85;2.00;;;;;;;15.45;100.00;101767.56;5006400;28;20029;-78
2021/09/13 08:18:20;;;;;;;10.93;2.10;;;;;;;15.37;100.00;101773.63;5036880;28;20041;-82
2021/09/13 08:20:46;;;;;;;7.28;1.67;;;;;;;15.28;100.00;101774.53;5037310;28;20090;-78
2021/09/13 08:23:12;;;;;;;8.85;1.95;;;;;;;15.32;100.00;101778.53;5039941;28;20014;-76
2021/09/13 08:25:41;;;;;;;7.22;1.85;;;;;;;15.26;100.00;101777.31;5001955;28;20048;-77
2021/09/13 08:28:19;;;;;;;8.90;2.13;;;;;;;15.36;100.00;101788.63;4988094;28;20046;-80
2021/09/13 08:30:46;;;;;;;9.02;2.28;;;;;;;15.36;100.00;101787.81;4985266;28;20057;-77
2021/09/13 08:33:12;;;;;;;8.80;1.92;;;;;;;15.38;100.00;101796.41;4977243;28;20041;-76
2021/09/13 08:35:38;;;;;;;5.35;1.70;;;;;;;15.36;100.00;101791.28;5000206;28;20563;-78
2021/09/13 08:38:03;;;;;;;9.57;2.10;;;;;;;15.28;100.00;101800.97;4985205;28;20081;-77
2021/09/13 08:40:29;;;;;;;5.38;1.70;;;;;;;15.26;100.00;101798.47;4982781;28;20065;-78
2021/09/13 08:42:55;;;;;;;5.07;1.70;;;;;;;15.22;100.00;101798.91;5008363;28;20042;-77
2021/09/13 08:45:30;;;;;;;6.90;1.70;;;;;;;15.21;100.00;101810.47;4984468;28;20038;-80
2021/09/13 08:48:06;;;;;;;6.93;2.00;;;;;;;15.21;100.00;101816.56;4979566;28;20037;-79
2021/09/13 08:50:42;;;;;;;8.88;2.00;;;;;;;15.22;100.00;101817.41;4985659;28;20040;-77
2021/09/13 08:53:11;;;;;;;4.30;1.88;;;;;;;15.37;100.00;101826.50;4996553;28;20048;-80
2021/09/13 08:55:36;;;;;;;7.57;2.00;;;;;;;15.41;100.00;101826.97;4997901;28;20030;-80
2021/09/13 08:58:03;;;;;;;8.07;1.58;;;;;;;15.50;100.00;101829.56;4992452;28;20039;-81
2021/09/13 09:00:30;;;;;;;6.15;1.60;;;;;;;15.64;100.00;101827.38;5007363;28;20516;-78
2021/09/13 09:02:55;;;;;;;9.07;1.70;;;;;;;15.59;100.00;101835.75;4996878;28;20072;-76
2021/09/13 09:05:21;;;;;;;7.63;1.52;;;;;;;15.63;99.07;101842.38;4988449;28;20052;-76
2021/09/13 09:07:52;;;;;;;4.97;1.63;;;;;;;15.75;99.24;101832.44;4989811;28;20450;-78
2021/09/13 09:10:25;;;;;;;9.90;1.70;;;;;;;15.96;96.08;101832.09;4998916;28;20049;-77
2021/09/13 09:13:15;;;;;;;11.65;1.70;;;;;;;16.02;98.20;101830.63;4989194;28;20091;-76
2021/09/13 09:15:57;;;;;;;7.45;1.70;;;;;;;16.24;97.39;101832.75;5002983;28;20065;-80
2021/09/13 09:18:24;;;;;;;13.73;2.05;;;;;;;16.37;94.08;101836.78;5020312;28;20033;-77
2021/09/13 09:20:50;;;;;;;5.85;1.40;;;;;;;16.55;96.65;101841.00;5013116;28;20091;-80
2021/09/13 09:23:16;;;;;;;7.28;1.85;;;;;;;16.71;97.51;101840.25;5006179;28;20048;-80
2021/09/13 09:25:42;;;;;;;9.95;1.52;;;;;;;16.82;93.30;101840.94;5006709;28;20124;-77
2021/09/13 09:28:12;;;;;;;4.72;1.10;;;;;;;16.84;87.14;101841.63;5003567;28;20056;-80
2021/09/13 09:30:40;;;;;;;3.70;1.05;;;;;;;16.70;94.11;101843.88;4992720;28;20030;-77
2021/09/13 09:33:11;;;;;;;8.93;1.40;;;;;;;16.49;90.72;101846.13;5005408;28;20030;-80
2021/09/13 09:35:57;;;;;;;5.30;1.50;;;;;;;16.39;90.09;101848.03;5018760;28;20033;-81
2021/09/13 09:38:35;;;;;;;6.28;1.33;;;;;;;16.37;90.60;101850.88;5010607;28;20052;-82
2021/09/13 09:41:09;;;;;;;5.25;1.33;;;;;;;16.38;97.14;101849.84;5008839;28;20502;-78
2021/09/13 09:43:52;;;;;;;5.03;1.30;;;;;;;16.34;95.96;101846.69;5022113;28;20571;-81
2021/09/13 09:46:20;;;;;;;7.47;1.52;;;;;;;16.40;94.94;101855.00;5006315;28;20037;-80
2021/09/13 09:48:46;;;;;;;6.22;1.38;;;;;;;16.43;96.13;101847.56;5002371;28;20053;-81
2021/09/13 09:51:26;;;;;;;8.45;1.58;;;;;;;16.47;93.98;101840.97;5009725;28;20052;-81
2021/09/13 09:53:52;;;;;;;9.05;1.40;;;;;;;16.42;90.92;101842.44;4997702;28;20057;-78
2021/09/13 09:56:17;;;;;;;7.38;1.40;;;;;;;16.37;90.55;101844.72;4999669;28;20120;-75
2021/09/13 09:59:05;;;;;;;6.03;1.50;;;;;;;16.41;94.77;101846.91;5013529;28;20044;-77
2021/09/13 10:01:31;;;;;;;7.00;1.48;;;;;;;16.52;98.96;101828.09;5010421;28;20060;-77
2021/09/13 10:04:20;;;;;;;5.22;1.40;;;;;;;16.50;95.49;101838.00;5009623;28;20099;-79
2021/09/13 10:06:48;;;;;;;7.45;1.73;;;;;;;16.56;97.04;101831.25;4985566;28;20026;-76
2021/09/13 10:09:15;;;;;;;4.25;1.20;;;;;;;16.62;95.57;101840.38;5015948;28;20078;-78
2021/09/13 10:11:42;;;;;;;5.15;1.10;;;;;;;16.59;96.39;101838.03;5017296;28;20042;-79
2021/09/13 10:14:16;;;;;;;10.63;1.10;;;;;;;16.74;96.87;101836.44;5029806;28;20144;-79
2021/09/13 10:16:44;;;;;;;3.92;1.08;;;;;;;16.96;91.11;101835.06;5007975;28;20083;-77
2021/09/13 10:19:11;;;;;;;5.88;1.20;;;;;;;17.11;92.20;101837.91;5016667;28;20029;-79
2021/09/13 10:21:37;;;;;;;7.05;1.10;;;;;;;17.12;90.34;101835.09;5035194;28;20508;-79
2021/09/13 10:24:12;;;;;;;3.30;0.90;;;;;;;17.11;85.01;101835.25;5000358;28;20167;-79
2021/09/13 10:26:40;;;;;;;4.93;1.10;;;;;;;17.12;90.35;101836.88;4998704;28;20053;-77
2021/09/13 10:29:07;;;;;;;3.85;1.42;;;;;;;17.04;89.15;101834.25;5001820;28;20034;-80
2021/09/13 10:31:41;;;;;;;2.33;0.70;;;;;;;16.95;87.14;101843.97;4999485;28;20048;-80
2021/09/13 10:34:50;;;;;;;3.28;0.88;;;;;;;16.78;85.21;101837.78;4980542;28;20037;-78
2021/09/13 10:37:19;;;;;;;4.05;0.90;;;;;;;16.77;89.25;101841.44;4998044;28;20072;-78
2021/09/13 10:40:16;;;;;;;3.28;1.00;;;;;;;16.69;92.96;101844.88;4995262;28;20096;-79
2021/09/13 10:42:41;;;;;;;3.10;0.90;;;;;;;16.71;94.21;101847.38;4980285;28;20041;-79
2021/09/13 10:45:24;;;;;;;4.45;1.35;;;;;;;16.77;95.54;101845.91;4985771;28;20030;-78
2021/09/13 10:47:59;;;;;;;4.43;1.20;;;;;;;16.66;94.45;101837.25;4999440;28;20064;-75
2021/09/13 10:50:36;;;;;;;4.97;0.95;;;;;;;16.61;89.38;101844.00;4979829;28;20057;-78
2021/09/13 10:53:24;;;;;;;2.58;0.82;;;;;;;16.63;91.53;101844.66;4979781;28;20121;-81
2021/09/13 10:55:55;;;;;;;4.68;0.90;;;;;;;16.62;95.29;101845.69;5003860;28;20148;-81
2021/09/13 10:58:30;;;;;;;6.35;1.20;;;;;;;16.52;93.95;101836.03;5000711;28;20121;-77
2021/09/13 11:00:58;;;;;;;4.90;1.10;;;;;;;16.40;95.46;101845.22;4995831;28;20045;-78
2021/09/13 11:03:23;;;;;;;5.93;0.90;;;;;;;16.29;96.88;101843.72;4998519;28;20486;-78
2021/09/13 11:06:14;;;;;;;5.97;1.27;;;;;;;16.22;96.11;101852.41;5005284;28;20044;-77
2021/09/13 11:08:42;;;;;;;6.78;1.48;;;;;;;16.20;95.74;101846.44;4995008;28;20125;-78
2021/09/13 11:11:15;;;;;;;7.80;1.80;;;;;;;16.17;95.18;101844.94;5004193;28;20095;-79
2021/09/13 11:13:43;;;;;;;8.52;1.50;;;;;;;16.09;93.40;101843.09;5042132;28;20037;-79
2021/09/13 11:16:14;;;;;;;12.52;2.08;;;;;;;16.11;95.08;101850.88;4993985;28;20450;-78
2021/09/13 11:18:42;;;;;;;5.30;1.33;;;;;;;16.22;95.08;101847.13;5001042;28;20482;-78
2021/09/13 11:21:32;;;;;;;7.30;1.73;;;;;;;16.31;95.57;101839.09;4979798;28;20041;-76
2021/09/13 11:24:06;;;;;;;14.25;2.08;;;;;;;16.52;93.12;101859.06;5000291;28;20070;-76